Airfield :
LOGIN :

Register | Disclaimer

   EN    FR    IT 

 










Legend :    VFR   Marginal VFR   IFR   Intensive IFR   Very Intensive IFR
Visi :
Ceiling :
>= 8 km
>= 3000ft
5 to 8 km
1000 to 3000 ft
1500m to 5 km
500 to 1000 ft
800 to 1500m
200 to 500 ft
< 800m
< 200 ft
Symbols :   Thunderstorms  Fog  Heavy snow  Heavy precipitations  Wind > 20 kt
SIGMETs :     Misc.  Thunderstorms  Icing  Turbulence  Mountain Waves  Volcanic Ashes







- Airport Elevation : 20 ft


EBFN - Koksijde

CURRENT METAR :
  • 170055Z AUTO 29008KT 9999 FEW100/// BKN190/// 15/14 Q1016 BLU

EXPIRED METARs :
  • 170025Z AUTO 28007KT 9999 BKN180/// 15/13 Q1016 BLU
  • 162355Z AUTO 26009KT 9999 BKN180/// 15/13 Q1016 BLU
  • 162325Z AUTO 26008KT 9999 FEW110/// BKN180/// 15/13 Q1016 BLU
  • 162255Z AUTO 27005KT 9999 SCT087/// BKN120/// BKN170/// 16/14 Q1016 BLU
  • 162225Z AUTO 25005KT 9999 FEW052/// BKN079/// 16/14 Q1017 BLU

TAF TAF EBFN
Valid from the 16 at 19:00 until the 17 at 07:00 UTC


161541Z 1619/1707 28010KT 8000 BKN030
TEMPO 1619/1701 28015G25KT 6000 -SHRA -RA SCT013 SCT025
PROB40
TEMPO 1619/1701 3000 SHRA RA SCT010
PROB30
TEMPO 1619/1701 28020G30KT 2000 TSRA BKN003CB
BECMG 1705/1707 31006KT
No reported NOTAMs for that airfield.
1 SIGMET reported for the Brussels FIR (EBBU) :
 
Embedded thunderstorms
EBBU SIGMET 02 VALID 162317/170217 EBBR
EBBU BRUSSELS FIR EMBD TS OBS W OF LINE N5021 E00349 - N5121 E00421 TOP FL380 MOV NE 10KT NC=



MET'MAP, your aeronautical weather chart ! - Copyright ORBIFLY December 2007 - Disclaimer

ORBIFLY MET'MAP TEAM :

Programming & Development : Alexandra Zaïnal
Concept & Development : Baudouin d'Aumeries
Co-Development & Prog : Marc-Olivier Méhu
Technical & hardware support : Manuel Goepfert

Contact : metmap@orbifly.com




SOURCES & CREDITS :

   NOAA